createdAt,value
2023-05-08T00:00:06.663Z,7.76
2023-05-08T00:03:55.125Z,7.64
2023-05-08T00:06:27.824Z,7.63
2023-05-08T00:08:58.871Z,7.61
2023-05-08T00:11:26.918Z,7.60
2023-05-08T00:14:15.198Z,7.61
2023-05-08T00:16:43.429Z,7.57
2023-05-08T00:19:11.473Z,7.59
2023-05-08T00:21:43.417Z,7.52
2023-05-08T00:25:11.335Z,7.57
2023-05-08T00:29:40.168Z,7.56
2023-05-08T00:33:48.733Z,7.54
2023-05-08T00:36:17.717Z,7.55
2023-05-08T00:38:46.185Z,7.58
2023-05-08T00:41:14.275Z,7.62
2023-05-08T00:43:42.320Z,7.66
2023-05-08T00:46:10.532Z,7.72
2023-05-08T00:48:40.029Z,7.76
2023-05-08T00:51:09.579Z,7.80
2023-05-08T00:54:58.652Z,7.81
2023-05-08T00:59:27.561Z,7.80
2023-05-08T01:03:46.853Z,7.67
2023-05-08T01:06:55.489Z,7.65
2023-05-08T01:09:23.619Z,7.68
2023-05-08T01:12:08.875Z,7.74
2023-05-08T01:14:51.462Z,7.76
2023-05-08T01:17:39.956Z,7.75
2023-05-08T01:20:20.383Z,7.75
2023-05-08T01:23:12.940Z,7.75
2023-05-08T01:26:02.878Z,7.77
2023-05-08T01:28:46.364Z,7.80
2023-05-08T01:31:26.381Z,7.81
2023-05-08T01:34:09.190Z,7.81
2023-05-08T01:37:46.521Z,7.81
2023-05-08T01:41:18.663Z,7.77
2023-05-08T01:45:59.199Z,7.72
2023-05-08T01:50:30.740Z,7.64
2023-05-08T01:54:08.732Z,7.66
2023-05-08T01:56:42.709Z,7.69
2023-05-08T02:00:10.958Z,7.73
2023-05-08T02:04:22.482Z,7.83
2023-05-08T02:06:52.361Z,7.92
2023-05-08T02:10:21.615Z,7.95
2023-05-08T02:14:49.827Z,8.03
2023-05-08T02:19:18.603Z,8.06
2023-05-08T02:23:47.453Z,7.99
2023-05-08T02:27:56.056Z,7.98
2023-05-08T02:32:25.257Z,7.99
2023-05-08T02:35:55.614Z,7.98
2023-05-08T02:38:26.528Z,7.92
2023-05-08T02:41:54.902Z,7.81
2023-05-08T02:46:26.560Z,7.55
2023-05-08T02:51:03.948Z,7.45
2023-05-08T02:55:47.874Z,7.42
2023-05-08T03:00:19.380Z,7.36
2023-05-08T03:04:28.187Z,7.41
2023-05-08T03:06:58.437Z,7.44
2023-05-08T03:09:32.138Z,7.51
2023-05-08T03:13:00.408Z,7.58
2023-05-08T03:17:29.265Z,7.67
2023-05-08T03:22:00.702Z,7.74
2023-05-08T03:26:29.575Z,7.71
2023-05-08T03:30:58.238Z,7.71
2023-05-08T03:35:26.503Z,7.65
2023-05-08T03:39:55.292Z,7.52
2023-05-08T03:43:16.730Z,7.45
2023-05-08T03:46:09.242Z,7.41
2023-05-08T03:48:39.157Z,7.28
2023-05-08T03:51:08.015Z,7.24
2023-05-08T03:53:38.371Z,7.22
2023-05-08T03:57:07.313Z,7.21
2023-05-08T04:01:34.290Z,7.17
2023-05-08T04:06:14.847Z,7.11
2023-05-08T04:10:41.746Z,7.01
2023-05-08T04:15:10.718Z,7.00
2023-05-08T04:17:53.851Z,6.97
2023-05-08T04:20:26.099Z,6.97
2023-05-08T04:22:56.050Z,7.00
2023-05-08T04:25:26.098Z,7.04
2023-05-08T04:28:54.931Z,7.07
2023-05-08T04:33:23.842Z,7.17
2023-05-08T04:37:52.691Z,7.38
2023-05-08T04:42:21.156Z,7.51
2023-05-08T04:46:49.926Z,7.79
2023-05-08T04:50:59.097Z,8.06
2023-05-08T04:55:27.970Z,7.99
2023-05-08T04:59:56.725Z,7.81
2023-05-08T05:04:25.552Z,7.74
2023-05-08T05:07:38.291Z,7.83
2023-05-08T05:11:07.425Z,7.85
2023-05-08T05:15:36.191Z,7.90
2023-05-08T05:20:05.023Z,7.82
2023-05-08T05:24:33.805Z,7.88
2023-05-08T05:29:02.002Z,7.96
2023-05-08T05:33:30.943Z,7.96
2023-05-08T05:37:59.429Z,7.92
2023-05-08T05:42:12.272Z,7.92
2023-05-08T05:46:25.621Z,7.72
2023-05-08T05:50:42.032Z,7.59
2023-05-08T05:54:51.163Z,7.47
2023-05-08T05:59:19.908Z,7.40
2023-05-08T06:03:14.062Z,7.38
2023-05-08T06:07:42.646Z,7.44
2023-05-08T06:10:51.134Z,7.57
2023-05-08T06:14:19.928Z,7.61
2023-05-08T06:17:48.176Z,7.60
2023-05-08T06:20:17.078Z,7.74
2023-05-08T06:23:45.909Z,7.91
2023-05-08T06:28:14.656Z,8.10
2023-05-08T06:30:43.781Z,8.16
2023-05-08T06:34:12.676Z,8.17
2023-05-08T06:38:21.416Z,8.13
2023-05-08T06:40:51.993Z,8.01
2023-05-08T06:43:23.562Z,7.99
2023-05-08T06:45:53.161Z,7.98
2023-05-08T06:48:21.242Z,7.99
2023-05-08T06:50:51.884Z,7.99
2023-05-08T06:54:20.668Z,8.02
2023-05-08T06:59:00.443Z,8.29
2023-05-08T07:02:17.876Z,8.91
2023-05-08T07:04:54.084Z,9.25
2023-05-08T07:07:22.044Z,9.42
2023-05-08T07:09:50.027Z,9.57
2023-05-08T07:12:18.034Z,9.63
2023-05-08T07:14:46.039Z,9.62
2023-05-08T07:17:14.016Z,9.58
2023-05-08T07:19:41.901Z,9.51
2023-05-08T07:22:11.070Z,9.40
2023-05-08T07:24:38.948Z,9.26
2023-05-08T07:27:06.967Z,9.19
2023-05-08T07:29:36.202Z,9.16
2023-05-08T07:32:08.568Z,9.16
2023-05-08T07:34:36.533Z,9.18
2023-05-08T07:37:04.560Z,9.22
2023-05-08T07:39:32.492Z,9.25
2023-05-08T07:42:00.567Z,9.31
2023-05-08T07:44:28.548Z,9.41
2023-05-08T07:46:56.578Z,9.62
2023-05-08T07:49:24.686Z,9.80
2023-05-08T07:51:52.765Z,9.84
2023-05-08T07:54:20.638Z,9.88
2023-05-08T07:56:48.560Z,10.05
2023-05-08T07:59:16.626Z,10.12
2023-05-08T08:01:47.488Z,10.20
2023-05-08T08:04:16.293Z,10.34
2023-05-08T08:06:44.392Z,10.42
2023-05-08T08:09:12.373Z,10.50
2023-05-08T08:11:40.685Z,10.54
2023-05-08T08:14:09.081Z,10.61
2023-05-08T08:16:37.098Z,10.70
2023-05-08T08:19:05.159Z,10.82
2023-05-08T08:21:33.210Z,10.90
2023-05-08T08:24:01.080Z,10.86
2023-05-08T08:26:28.960Z,10.83
2023-05-08T08:28:56.821Z,10.96
2023-05-08T08:31:25.120Z,11.24
2023-05-08T08:33:53.168Z,11.47
2023-05-08T08:36:21.081Z,11.61
2023-05-08T08:38:48.950Z,11.63
2023-05-08T08:41:16.926Z,11.70
2023-05-08T08:43:44.798Z,12.06
2023-05-08T08:46:15.553Z,12.49
2023-05-08T08:48:47.540Z,12.82
2023-05-08T08:51:46.223Z,12.87
2023-05-08T08:54:16.373Z,12.72
2023-05-08T08:56:49.590Z,12.82
2023-05-08T08:59:19.144Z,12.98
2023-05-08T09:01:55.820Z,13.04
2023-05-08T09:04:27.303Z,12.88
2023-05-08T09:06:55.808Z,12.68
2023-05-08T09:09:23.783Z,12.60
2023-05-08T09:11:53.420Z,12.64
2023-05-08T09:14:21.494Z,12.69
2023-05-08T09:16:49.389Z,12.78
2023-05-08T09:19:18.056Z,12.88
2023-05-08T09:21:46.419Z,12.87
2023-05-08T09:24:14.408Z,12.87
2023-05-08T09:26:42.755Z,12.85
2023-05-08T09:29:22.319Z,12.93
2023-05-08T09:31:52.914Z,13.10
2023-05-08T09:34:33.441Z,13.29
2023-05-08T09:37:10.428Z,13.43
2023-05-08T09:39:43.355Z,13.60
2023-05-08T09:42:11.311Z,13.81
2023-05-08T09:44:51.263Z,13.95
2023-05-08T09:47:21.952Z,14.13
2023-05-08T09:50:00.254Z,14.28
2023-05-08T09:52:29.680Z,14.40
2023-05-08T09:54:59.376Z,14.50
2023-05-08T09:57:29.792Z,14.65
2023-05-08T10:00:10.262Z,14.82
2023-05-08T10:02:41.562Z,14.83
2023-05-08T10:05:31.409Z,14.75
2023-05-08T10:08:18.771Z,14.56
2023-05-08T10:10:47.284Z,14.17
2023-05-08T10:13:15.407Z,13.87
2023-05-08T10:15:44.681Z,13.69
2023-05-08T10:18:17.797Z,13.70
2023-05-08T10:20:48.930Z,13.72
2023-05-08T10:23:19.210Z,13.68
2023-05-08T10:25:49.921Z,13.73
2023-05-08T10:28:40.983Z,13.90
2023-05-08T10:31:16.266Z,14.08
2023-05-08T10:33:46.675Z,14.07
2023-05-08T10:36:15.748Z,13.99
2023-05-08T10:38:43.988Z,13.99
2023-05-08T10:41:12.352Z,14.09
2023-05-08T10:43:43.489Z,14.22
2023-05-08T10:46:25.872Z,14.37
2023-05-08T10:49:11.968Z,14.69
2023-05-08T10:51:47.277Z,15.05
2023-05-08T10:54:32.187Z,15.35
2023-05-08T10:57:11.164Z,15.46
2023-05-08T10:59:39.351Z,15.53
2023-05-08T11:02:08.529Z,15.38
2023-05-08T11:04:36.877Z,15.16
2023-05-08T11:07:05.625Z,15.09
2023-05-08T11:09:43.104Z,15.10
2023-05-08T11:12:20.453Z,15.01
2023-05-08T11:15:09.858Z,14.87
2023-05-08T11:17:39.546Z,14.81
2023-05-08T11:20:08.008Z,14.97
2023-05-08T11:22:37.192Z,15.14
2023-05-08T11:25:09.060Z,15.38
2023-05-08T11:27:39.678Z,15.53
2023-05-08T11:30:24.497Z,15.65
2023-05-08T11:32:58.481Z,15.66
2023-05-08T11:35:50.167Z,15.61
2023-05-08T11:38:22.695Z,15.62
2023-05-08T11:40:56.593Z,15.58
2023-05-08T11:43:33.419Z,15.43
2023-05-08T11:46:13.436Z,15.37
2023-05-08T11:48:41.437Z,15.33
2023-05-08T11:51:09.761Z,15.31
2023-05-08T11:53:38.117Z,15.34
2023-05-08T11:56:06.211Z,15.50
2023-05-08T11:58:34.162Z,15.69
2023-05-08T12:01:02.285Z,15.90
2023-05-08T12:03:30.397Z,16.18
2023-05-08T12:05:59.900Z,16.32
2023-05-08T12:08:28.110Z,16.35
2023-05-08T12:10:57.694Z,16.30
2023-05-08T12:13:27.725Z,16.25
2023-05-08T12:15:58.963Z,16.19
2023-05-08T12:18:29.422Z,16.17
2023-05-08T12:21:00.019Z,15.99
2023-05-08T12:23:31.092Z,15.69
2023-05-08T12:26:00.570Z,15.34
2023-05-08T12:28:29.900Z,15.15
2023-05-08T12:30:58.626Z,15.32
2023-05-08T12:33:28.702Z,15.57
2023-05-08T12:35:57.260Z,15.60
2023-05-08T12:38:27.051Z,15.55
2023-05-08T12:40:57.893Z,15.46
2023-05-08T12:43:34.752Z,15.36
2023-05-08T12:46:06.400Z,15.56
2023-05-08T12:48:34.444Z,15.89
2023-05-08T12:51:05.604Z,16.10
2023-05-08T12:53:33.777Z,16.33
2023-05-08T12:56:04.291Z,16.64
2023-05-08T12:58:34.553Z,16.90
2023-05-08T13:01:10.292Z,16.99
2023-05-08T13:03:38.715Z,16.68
2023-05-08T13:06:07.536Z,16.29
2023-05-08T13:08:38.314Z,16.12
2023-05-08T13:11:07.333Z,16.10
2023-05-08T13:13:37.135Z,16.09
2023-05-08T13:16:06.984Z,16.04
2023-05-08T13:18:37.895Z,15.97
2023-05-08T13:21:06.111Z,15.87
2023-05-08T13:23:34.006Z,15.72
2023-05-08T13:26:01.789Z,15.58
2023-05-08T13:28:29.694Z,15.65
2023-05-08T13:30:57.525Z,15.86
2023-05-08T13:33:25.559Z,15.90
2023-05-08T13:35:54.273Z,15.71
2023-05-08T13:38:22.145Z,15.47
2023-05-08T13:40:50.043Z,15.28
2023-05-08T13:43:18.061Z,15.17
2023-05-08T13:45:45.993Z,15.00
2023-05-08T13:48:13.842Z,14.90
2023-05-08T13:50:41.941Z,14.96
2023-05-08T13:53:09.912Z,15.15
2023-05-08T13:55:38.013Z,15.26
2023-05-08T13:58:05.912Z,15.16
2023-05-08T14:00:34.616Z,15.02
2023-05-08T14:03:03.208Z,14.95
2023-05-08T14:05:33.282Z,14.88
2023-05-08T14:08:01.181Z,14.86
2023-05-08T14:10:29.094Z,14.89
2023-05-08T14:12:57.044Z,14.84
2023-05-08T14:15:29.233Z,14.73
2023-05-08T14:18:04.444Z,14.66
2023-05-08T14:20:32.352Z,14.67
2023-05-08T14:23:00.459Z,14.71
2023-05-08T14:25:28.316Z,14.79
2023-05-08T14:27:56.197Z,14.89
2023-05-08T14:30:24.216Z,15.07
2023-05-08T14:32:52.123Z,15.04
2023-05-08T14:35:20.077Z,14.88
2023-05-08T14:37:48.111Z,14.82
2023-05-08T14:40:16.005Z,14.75
2023-05-08T14:42:43.889Z,14.61
2023-05-08T14:45:12.201Z,14.43
2023-05-08T14:47:40.598Z,14.33
2023-05-08T14:50:08.831Z,14.23
2023-05-08T14:52:36.699Z,14.23
2023-05-08T14:55:05.205Z,14.28
2023-05-08T14:57:33.350Z,14.28
2023-05-08T15:00:01.275Z,14.21
2023-05-08T15:02:29.189Z,14.07
2023-05-08T15:04:57.158Z,13.89
2023-05-08T15:07:28.280Z,13.73
2023-05-08T15:09:59.060Z,13.55
2023-05-08T15:12:27.029Z,13.36
2023-05-08T15:14:54.866Z,13.21
2023-05-08T15:17:22.770Z,13.11
2023-05-08T15:19:50.740Z,13.12
2023-05-08T15:22:18.679Z,13.14
2023-05-08T15:24:46.648Z,13.13
2023-05-08T15:27:14.697Z,13.13
2023-05-08T15:29:42.535Z,13.08
2023-05-08T15:32:10.526Z,13.00
2023-05-08T15:34:40.001Z,13.02
2023-05-08T15:37:08.701Z,13.22
2023-05-08T15:39:36.972Z,13.39
2023-05-08T15:42:05.171Z,13.50
2023-05-08T15:44:52.578Z,13.52
2023-05-08T15:47:23.013Z,13.48
2023-05-08T15:49:51.288Z,13.47
2023-05-08T15:52:19.982Z,13.41
2023-05-08T15:54:48.380Z,13.38
2023-05-08T15:57:16.852Z,13.33
2023-05-08T15:59:44.719Z,13.25
2023-05-08T16:02:12.754Z,13.18
2023-05-08T16:04:40.746Z,13.11
2023-05-08T16:07:08.594Z,13.07
2023-05-08T16:09:36.612Z,12.99
2023-05-08T16:12:04.712Z,12.92
2023-05-08T16:14:32.610Z,12.87
2023-05-08T16:17:00.523Z,12.83
2023-05-08T16:19:28.964Z,12.73
2023-05-08T16:21:56.890Z,12.60
2023-05-08T16:24:24.767Z,12.50
2023-05-08T16:26:52.648Z,12.38
2023-05-08T16:29:20.565Z,12.28
2023-05-08T16:31:48.450Z,12.16
2023-05-08T16:34:16.594Z,12.07
2023-05-08T16:36:44.568Z,12.02
2023-05-08T16:39:12.482Z,12.02
2023-05-08T16:41:40.340Z,12.01
2023-05-08T16:44:08.288Z,12.02
2023-05-08T16:46:36.144Z,12.05
2023-05-08T16:49:04.020Z,12.11
2023-05-08T16:51:32.448Z,12.26
2023-05-08T16:54:00.326Z,12.41
2023-05-08T16:56:28.214Z,12.53
2023-05-08T16:58:56.576Z,12.61
2023-05-08T17:01:24.561Z,12.69
2023-05-08T17:03:52.475Z,12.72
2023-05-08T17:06:20.894Z,12.71
2023-05-08T17:08:48.849Z,12.65
2023-05-08T17:11:16.736Z,12.53
2023-05-08T17:13:46.290Z,12.37
2023-05-08T17:16:14.264Z,12.24
2023-05-08T17:18:42.283Z,12.11
2023-05-08T17:21:10.212Z,11.98
2023-05-08T17:23:38.082Z,11.86
2023-05-08T17:26:06.194Z,11.77
2023-05-08T17:28:34.235Z,11.69
2023-05-08T17:31:02.469Z,11.61
2023-05-08T17:33:30.390Z,11.56
2023-05-08T17:35:58.355Z,11.52
2023-05-08T17:38:26.346Z,11.50
2023-05-08T17:40:54.355Z,11.55
2023-05-08T17:43:22.327Z,11.60
2023-05-08T17:45:50.297Z,11.64
2023-05-08T17:48:18.104Z,11.67
2023-05-08T17:50:47.064Z,11.67
2023-05-08T17:53:14.955Z,11.62
2023-05-08T17:55:42.925Z,11.59
2023-05-08T17:58:10.738Z,11.52
2023-05-08T18:00:38.574Z,11.44
2023-05-08T18:03:06.623Z,11.37
2023-05-08T18:05:34.572Z,11.28
2023-05-08T18:08:02.515Z,11.21
2023-05-08T18:10:30.445Z,11.16
2023-05-08T18:12:58.752Z,11.11
2023-05-08T18:15:26.731Z,11.09
2023-05-08T18:17:54.787Z,11.07
2023-05-08T18:20:23.619Z,11.06
2023-05-08T18:22:52.086Z,11.04
2023-05-08T18:25:20.048Z,10.99
2023-05-08T18:27:50.178Z,10.93
2023-05-08T18:30:18.272Z,10.87
2023-05-08T18:32:46.181Z,10.82
2023-05-08T18:35:14.135Z,10.78
2023-05-08T18:37:42.405Z,10.74
2023-05-08T18:40:11.026Z,10.71
2023-05-08T18:42:38.981Z,10.69
2023-05-08T18:45:07.462Z,10.70
2023-05-08T18:47:35.419Z,10.71
2023-05-08T18:50:03.674Z,10.70
2023-05-08T18:52:31.616Z,10.70
2023-05-08T18:54:59.553Z,10.70
2023-05-08T18:57:27.594Z,10.68
2023-05-08T18:59:55.511Z,10.64
2023-05-08T19:02:24.950Z,10.59
2023-05-08T19:04:52.930Z,10.56
2023-05-08T19:07:20.903Z,10.52
2023-05-08T19:09:48.901Z,10.47
2023-05-08T19:12:16.850Z,10.44
2023-05-08T19:14:44.768Z,10.39
2023-05-08T19:17:12.646Z,10.36
2023-05-08T19:19:40.571Z,10.28
2023-05-08T19:22:08.526Z,10.28
2023-05-08T19:24:36.508Z,10.27
2023-05-08T19:27:04.453Z,10.24
2023-05-08T19:29:37.960Z,10.18
2023-05-08T19:32:07.799Z,10.13
2023-05-08T19:34:37.133Z,10.07
2023-05-08T19:37:05.077Z,10.01
2023-05-08T19:39:33.126Z,10.00
2023-05-08T19:42:01.031Z,9.98
2023-05-08T19:44:30.043Z,9.98
2023-05-08T19:46:58.530Z,10.00
2023-05-08T19:49:26.511Z,10.03
2023-05-08T19:51:54.567Z,10.02
2023-05-08T19:54:22.419Z,9.99
2023-05-08T19:56:50.510Z,9.94
2023-05-08T19:59:18.395Z,9.88
2023-05-08T20:01:46.322Z,9.81
2023-05-08T20:04:14.198Z,9.74
2023-05-08T20:06:42.649Z,9.67
2023-05-08T20:09:10.568Z,9.60
2023-05-08T20:11:38.355Z,9.54
2023-05-08T20:14:06.193Z,9.47
2023-05-08T20:16:34.254Z,9.43
2023-05-08T20:19:02.176Z,9.40
2023-05-08T20:21:32.562Z,9.38
2023-05-08T20:24:01.119Z,9.36
2023-05-08T20:26:29.604Z,9.34
2023-05-08T20:28:57.663Z,9.30
2023-05-08T20:31:27.788Z,9.25
2023-05-08T20:33:55.856Z,9.21
2023-05-08T20:36:23.749Z,9.20
2023-05-08T20:38:51.506Z,9.18
2023-05-08T20:41:19.495Z,9.15
2023-05-08T20:43:47.433Z,9.11
2023-05-08T20:46:15.436Z,9.07
2023-05-08T20:48:43.648Z,9.05
2023-05-08T20:51:11.875Z,9.04
2023-05-08T20:53:40.180Z,9.03
2023-05-08T20:56:08.753Z,9.03
2023-05-08T20:58:36.720Z,9.05
2023-05-08T21:01:04.719Z,9.05
2023-05-08T21:03:32.569Z,9.03
2023-05-08T21:06:00.596Z,9.00
2023-05-08T21:08:28.630Z,8.96
2023-05-08T21:10:56.648Z,8.92
2023-05-08T21:13:25.447Z,8.90
2023-05-08T21:15:53.398Z,8.86
2023-05-08T21:18:21.364Z,8.82
2023-05-08T21:20:52.080Z,8.83
2023-05-08T21:23:20.592Z,8.82
2023-05-08T21:25:49.938Z,8.80
2023-05-08T21:28:17.879Z,8.78
2023-05-08T21:30:46.388Z,8.75
2023-05-08T21:33:14.421Z,8.71
2023-05-08T21:35:43.314Z,8.66
2023-05-08T21:38:14.007Z,8.64
2023-05-08T21:40:42.037Z,8.62
2023-05-08T21:43:09.947Z,8.59
2023-05-08T21:45:37.947Z,8.55
2023-05-08T21:48:06.199Z,8.51
2023-05-08T21:50:34.167Z,8.48
2023-05-08T21:53:02.089Z,8.45
2023-05-08T21:55:32.184Z,8.43
2023-05-08T21:58:00.278Z,8.38
2023-05-08T22:00:28.645Z,8.35
2023-05-08T22:02:56.717Z,8.34
2023-05-08T22:05:24.853Z,8.33
2023-05-08T22:07:52.733Z,8.32
2023-05-08T22:10:21.876Z,8.31
2023-05-08T22:12:49.831Z,8.29
2023-05-08T22:15:29.234Z,8.28
2023-05-08T22:18:00.376Z,8.26
2023-05-08T22:20:28.705Z,8.26
2023-05-08T22:22:56.661Z,8.28
2023-05-08T22:25:25.386Z,8.27
2023-05-08T22:27:53.267Z,8.26
2023-05-08T22:30:21.288Z,8.25
2023-05-08T22:32:58.242Z,8.21
2023-05-08T22:35:27.784Z,8.15
2023-05-08T22:37:58.094Z,8.13
2023-05-08T22:40:26.810Z,8.12
2023-05-08T22:42:56.043Z,8.11
2023-05-08T22:45:23.926Z,8.10
2023-05-08T22:47:51.974Z,8.09
2023-05-08T22:50:20.241Z,8.08
2023-05-08T22:52:48.285Z,8.04
2023-05-08T22:55:16.940Z,7.98
2023-05-08T22:57:44.952Z,7.93
2023-05-08T23:00:13.284Z,7.88
2023-05-08T23:02:41.210Z,7.81
2023-05-08T23:05:09.515Z,7.77
2023-05-08T23:07:37.343Z,7.75
2023-05-08T23:10:05.519Z,7.73
2023-05-08T23:12:33.336Z,7.71
2023-05-08T23:15:01.175Z,7.67
2023-05-08T23:17:29.091Z,7.66
2023-05-08T23:19:57.235Z,7.64
2023-05-08T23:22:25.164Z,7.62
2023-05-08T23:24:53.045Z,7.61
2023-05-08T23:27:20.891Z,7.56
2023-05-08T23:29:48.821Z,7.54
2023-05-08T23:32:16.765Z,7.51
2023-05-08T23:34:44.786Z,7.50
2023-05-08T23:37:12.689Z,7.50
2023-05-08T23:39:41.485Z,7.50
2023-05-08T23:42:09.809Z,7.49
2023-05-08T23:44:37.870Z,7.47
2023-05-08T23:47:06.240Z,7.47
2023-05-08T23:49:34.810Z,7.45
2023-05-08T23:52:02.849Z,7.44
2023-05-08T23:54:30.835Z,7.43
2023-05-08T23:56:58.686Z,7.41
2023-05-08T23:59:26.492Z,7.38
